Time;durP1;ratioP1;P1;durP2;ratioP2;P2;SDS_P1;SDS_P2;PMS_P1;PMS_P2;Temp;Humidity;BMP_temperature;BMP_pressure;BME280_temperature;BME280_humidity;BME280_pressure;Samples;Min_cycle;Max_cycle;Signal;HPM_P1;HPM_P2
2024/02/02 00:01:40;;;;;;;18.85;3.65;;;;;;;-146.27;86.67;42601.91;5051858;28;20067;-71
2024/02/02 00:04:05;;;;;;;17.92;2.65;;;;;;;-146.27;86.17;42679.47;5063252;28;20511;-72
2024/02/02 00:06:30;;;;;;;26.38;3.42;;;;;;;-146.27;87.29;42641.69;5052072;28;20033;-70
2024/02/02 00:08:56;;;;;;;20.27;3.05;;;;;;;-146.27;87.92;42679.47;5064395;28;20130;-70
2024/02/02 00:11:22;;;;;;;20.90;4.13;;;;;;;-146.27;87.88;42611.84;5068624;28;20078;-71
2024/02/02 00:13:48;;;;;;;16.40;3.13;;;;;;;-146.27;87.33;42629.75;5069744;28;20028;-69
2024/02/02 00:16:13;;;;;;;19.05;5.07;;;;;;;-146.27;86.90;42615.84;5067318;28;20409;-69
2024/02/02 00:18:39;;;;;;;20.02;3.80;;;;;;;-146.27;87.10;42637.72;5064869;28;20111;-71
2024/02/02 00:21:04;;;;;;;18.35;3.78;;;;;;;-146.27;86.56;42655.63;5067806;28;20021;-71
2024/02/02 00:23:29;;;;;;;23.83;4.43;;;;;;;-146.27;86.70;42677.50;5069925;28;20047;-70
2024/02/02 00:25:55;;;;;;;14.48;3.53;;;;;;;-146.27;87.17;42599.94;5069250;28;20029;-71
2024/02/02 00:28:20;;;;;;;23.40;4.20;;;;;;;-146.27;85.86;42591.97;5063171;28;20405;-70
2024/02/02 00:30:46;;;;;;;13.20;3.80;;;;;;;-146.27;86.67;42695.38;5058590;28;20048;-70
2024/02/02 00:33:12;;;;;;;13.00;3.55;;;;;;;-146.27;86.18;42615.84;5051621;28;20031;-72
2024/02/02 00:35:37;;;;;;;22.75;4.18;;;;;;;-146.27;87.11;42653.63;5056568;28;20090;-70
2024/02/02 00:38:03;;;;;;;19.83;3.65;;;;;;;-146.27;86.43;42619.81;5059021;28;20098;-72
2024/02/02 00:40:29;;;;;;;21.58;3.85;;;;;;;-146.27;85.64;42625.78;5063498;28;20029;-71
2024/02/02 00:42:54;;;;;;;15.75;3.08;;;;;;;-146.27;86.09;42675.50;5066975;28;20036;-71
2024/02/02 00:45:20;;;;;;;14.77;3.65;;;;;;;-146.27;85.97;42679.47;5057753;28;20020;-70
2024/02/02 00:47:46;;;;;;;19.33;4.05;;;;;;;-146.27;87.11;42683.47;5050305;28;20053;-70
2024/02/02 00:50:11;;;;;;;26.83;4.97;;;;;;;-146.27;88.08;42588.00;5064290;28;20051;-69
2024/02/02 00:52:37;;;;;;;15.95;3.72;;;;;;;-146.27;86.64;42582.03;5066385;28;20020;-73
2024/02/02 00:55:02;;;;;;;27.77;4.43;;;;;;;-146.27;86.72;42639.69;5067211;28;20055;-73
2024/02/02 00:57:28;;;;;;;23.15;3.90;;;;;;;-146.27;85.68;42613.84;5063971;28;20078;-73
2024/02/02 00:59:54;;;;;;;28.33;4.97;;;;;;;-146.27;85.95;42659.59;5060759;28;20384;-73
2024/02/02 01:02:20;;;;;;;15.23;3.88;;;;;;;-146.27;86.20;42659.59;5055439;28;20029;-72
2024/02/02 01:04:45;;;;;;;25.33;4.22;;;;;;;-146.27;86.60;42661.56;5063982;28;20034;-73
2024/02/02 01:07:14;;;;;;;17.48;4.38;;;;;;;-146.27;88.21;42621.81;5058940;28;20549;-71
2024/02/02 01:09:39;;;;;;;20.60;4.43;;;;;;;-146.27;86.80;42631.75;5057857;28;20108;-70
2024/02/02 01:12:05;;;;;;;22.65;4.35;;;;;;;-146.27;85.71;42629.75;5063255;28;20082;-70
2024/02/02 01:14:30;;;;;;;30.13;4.82;;;;;;;-146.27;86.10;42715.28;5049595;28;20455;-69
2024/02/02 01:16:55;;;;;;;23.17;4.13;;;;;;;-146.27;87.54;42631.75;5049510;28;20483;-70
2024/02/02 01:19:21;;;;;;;16.95;4.13;;;;;;;-146.27;85.51;42627.78;5049099;28;20151;-71
2024/02/02 01:21:46;;;;;;;21.98;5.00;;;;;;;-146.27;85.27;42639.69;5061286;28;20447;-71
2024/02/02 01:24:12;;;;;;;26.25;4.63;;;;;;;-146.27;84.81;42705.34;5058077;28;20021;-71
2024/02/02 01:26:37;;;;;;;15.77;4.45;;;;;;;-146.27;85.40;42689.41;5058198;28;20024;-70
2024/02/02 01:29:03;;;;;;;26.75;4.40;;;;;;;-146.27;84.37;42693.41;5069721;28;20060;-71
2024/02/02 01:31:28;;;;;;;24.83;4.75;;;;;;;-146.27;85.80;42767.00;5067840;28;20149;-70
2024/02/02 01:33:55;;;;;;;27.67;5.55;;;;;;;-146.27;85.98;42683.47;5069470;28;20056;-71
2024/02/02 01:36:20;;;;;;;22.23;4.57;;;;;;;-146.27;84.76;42725.22;5069394;28;20028;-70
2024/02/02 01:38:50;;;;;;;20.95;4.78;;;;;;;-146.27;84.98;42743.13;5067958;28;20074;-71
2024/02/02 01:41:17;;;;;;;25.05;4.80;;;;;;;-146.27;84.72;42743.13;5069237;28;20044;-70
2024/02/02 01:43:44;;;;;;;26.45;5.25;;;;;;;-146.27;85.32;42745.09;5068455;28;20111;-71
2024/02/02 01:46:10;;;;;;;24.48;3.80;;;;;;;-146.27;84.32;42709.31;5069191;28;20029;-71
2024/02/02 01:48:36;;;;;;;17.38;4.30;;;;;;;-146.27;84.46;42727.22;5070559;28;20107;-71
2024/02/02 01:51:01;;;;;;;22.35;4.25;;;;;;;-146.27;85.28;42778.91;5073144;28;20108;-71
2024/02/02 01:53:27;;;;;;;27.73;4.63;;;;;;;-146.27;84.88;42723.22;5072585;28;20118;-70
2024/02/02 01:55:52;;;;;;;18.15;4.38;;;;;;;-146.27;84.57;42774.94;5070376;28;20036;-70
2024/02/02 01:58:18;;;;;;;17.23;4.68;;;;;;;-146.27;86.50;42707.31;5071594;28;20086;-70
2024/02/02 02:00:43;;;;;;;20.95;4.90;;;;;;;-146.27;85.35;42755.06;5072360;28;20036;-71
2024/02/02 02:03:10;;;;;;;24.60;3.75;;;;;;;-146.27;85.34;42705.34;5072455;28;20477;-71
2024/02/02 02:05:35;;;;;;;23.13;4.03;;;;;;;-146.27;85.63;42733.19;5072728;28;20021;-70
2024/02/02 02:08:02;;;;;;;26.05;4.05;;;;;;;-146.27;86.57;42794.84;5072532;28;20039;-70
2024/02/02 02:10:29;;;;;;;23.40;4.40;;;;;;;-146.27;85.50;42711.31;5067840;28;20052;-71
2024/02/02 02:12:54;;;;;;;22.35;3.60;;;;;;;-146.27;86.55;42788.88;5064610;28;20033;-71
2024/02/02 02:15:20;;;;;;;16.38;3.60;;;;;;;-146.27;86.28;42703.34;5072747;28;20044;-71
2024/02/02 02:17:48;;;;;;;18.55;3.72;;;;;;;-146.27;85.76;42721.25;5072617;28;20024;-69
2024/02/02 02:20:16;;;;;;;20.92;4.40;;;;;;;-146.27;85.08;42715.28;5064490;28;20094;-70
2024/02/02 02:22:42;;;;;;;16.70;4.55;;;;;;;-146.27;85.11;42770.97;5072231;28;20458;-69
2024/02/02 02:25:07;;;;;;;22.92;4.13;;;;;;;-146.27;85.32;42784.88;5070662;28;20116;-70
2024/02/02 02:27:32;;;;;;;13.73;3.78;;;;;;;-146.27;85.26;42755.06;5072356;28;20443;-71
2024/02/02 02:30:00;;;;;;;26.25;4.20;;;;;;;-146.27;85.24;42818.69;5070767;28;20134;-72
2024/02/02 02:32:25;;;;;;;32.28;5.07;;;;;;;-146.27;84.67;42782.91;5060266;28;20369;-70
2024/02/02 02:34:51;;;;;;;17.08;4.07;;;;;;;-146.27;83.98;42814.72;5071780;28;20116;-69
2024/02/02 02:37:16;;;;;;;13.90;3.20;;;;;;;-146.27;85.19;42882.34;5071805;28;20439;-71
2024/02/02 02:39:42;;;;;;;20.75;3.63;;;;;;;-146.27;84.19;42832.63;5071260;28;20032;-71
2024/02/02 02:42:07;;;;;;;15.73;3.38;;;;;;;-146.27;84.04;42870.41;5071791;28;20044;-70
2024/02/02 02:44:32;;;;;;;20.23;3.25;;;;;;;-146.27;83.61;42886.31;5071749;28;20035;-70
2024/02/02 02:46:58;;;;;;;16.95;2.97;;;;;;;-146.27;84.38;42973.84;5070154;28;20024;-71
2024/02/02 02:49:23;;;;;;;17.05;3.58;;;;;;;-146.27;84.10;42924.13;5070201;28;20017;-70
2024/02/02 02:51:49;;;;;;;22.35;3.10;;;;;;;-146.27;83.42;42912.19;5071847;28;20013;-70
2024/02/02 02:54:14;;;;;;;17.23;3.88;;;;;;;-146.27;82.33;42922.13;5070277;28;20494;-71
2024/02/02 02:56:39;;;;;;;16.95;3.00;;;;;;;-146.27;82.27;42942.00;5065716;28;20539;-71
2024/02/02 02:59:05;;;;;;;17.90;3.38;;;;;;;-146.27;81.90;42949.97;5069881;28;20365;-71
2024/02/02 03:01:31;;;;;;;25.20;3.15;;;;;;;-146.27;82.56;43013.63;5071127;28;20108;-71
2024/02/02 03:03:56;;;;;;;26.80;3.90;;;;;;;-146.27;82.25;42973.84;5069327;28;20055;-70
2024/02/02 03:06:21;;;;;;;19.27;3.03;;;;;;;-146.27;82.92;42961.91;5071336;28;20504;-71
2024/02/02 03:08:47;;;;;;;23.77;4.63;;;;;;;-146.27;82.52;43041.47;5071622;28;20032;-70
2024/02/02 03:11:13;;;;;;;20.73;3.67;;;;;;;-146.27;82.49;42985.78;5070006;28;20020;-69
2024/02/02 03:13:38;;;;;;;13.88;2.38;;;;;;;-146.27;82.20;43013.63;5064302;28;20021;-71
2024/02/02 03:16:04;;;;;;;24.45;3.95;;;;;;;-146.27;82.66;42977.81;5067690;28;20051;-72
2024/02/02 03:18:30;;;;;;;24.50;3.58;;;;;;;-146.27;82.25;42987.75;5071459;28;20024;-70
2024/02/02 03:20:55;;;;;;;24.88;4.32;;;;;;;-146.27;82.51;42993.72;5070585;28;20547;-73
2024/02/02 03:23:20;;;;;;;32.75;3.55;;;;;;;-146.27;83.10;43003.69;5071270;28;20032;-69
2024/02/02 03:25:46;;;;;;;24.77;4.30;;;;;;;-146.27;83.51;43009.63;5070150;28;20054;-70
2024/02/02 03:28:11;;;;;;;20.85;4.07;;;;;;;-146.27;83.60;43047.44;5069856;28;20051;-70
2024/02/02 03:30:36;;;;;;;20.85;3.85;;;;;;;-146.27;82.23;42977.81;5070740;28;20090;-70
2024/02/02 03:33:02;;;;;;;22.02;4.13;;;;;;;-146.27;83.12;42955.94;5070812;28;20032;-71
2024/02/02 03:35:27;;;;;;;19.40;3.58;;;;;;;-146.27;82.92;42989.75;5070746;28;20020;-71
2024/02/02 03:37:53;;;;;;;21.40;5.70;;;;;;;-146.27;83.86;43077.28;5070089;28;20108;-70
2024/02/02 03:40:18;;;;;;;22.90;3.17;;;;;;;-146.27;84.29;42961.91;5068826;28;20097;-70
2024/02/02 03:42:44;;;;;;;22.73;3.42;;;;;;;-146.27;83.72;42953.94;5070271;28;20104;-69
2024/02/02 03:45:09;;;;;;;17.20;3.38;;;;;;;-146.27;84.26;42981.78;5070628;28;20023;-71
2024/02/02 03:47:34;;;;;;;26.20;4.07;;;;;;;-146.27;84.59;43015.59;5070264;28;20425;-70
2024/02/02 03:50:00;;;;;;;20.73;2.80;;;;;;;-146.27;84.12;42999.69;5070632;28;20099;-71
2024/02/02 03:52:26;;;;;;;18.98;3.95;;;;;;;-146.27;85.07;42973.84;5070441;28;20089;-71
2024/02/02 03:54:51;;;;;;;17.17;3.03;;;;;;;-146.27;84.19;42942.00;5067564;28;20124;-71
2024/02/02 03:57:17;;;;;;;22.48;4.10;;;;;;;-146.27;84.11;42981.78;5069852;28;20028;-70
2024/02/02 03:59:42;;;;;;;17.73;2.97;;;;;;;-146.27;83.85;42938.03;5069382;28;20033;-70
2024/02/02 04:02:08;;;;;;;28.08;4.82;;;;;;;-146.27;83.34;42967.88;5070160;28;20032;-70
2024/02/02 04:04:34;;;;;;;13.82;2.83;;;;;;;-146.27;83.98;43027.53;5069757;28;20033;-72
2024/02/02 04:07:00;;;;;;;28.38;4.53;;;;;;;-146.27;83.50;42957.94;5069472;28;20047;-71
2024/02/02 04:09:25;;;;;;;15.32;3.75;;;;;;;-146.27;82.53;42894.28;5069408;28;20480;-71
2024/02/02 04:11:50;;;;;;;19.50;3.20;;;;;;;-146.27;82.60;42977.81;5067233;28;20128;-71
2024/02/02 04:14:16;;;;;;;23.38;3.15;;;;;;;-146.27;82.71;42959.91;5069675;28;20024;-70
2024/02/02 04:16:41;;;;;;;23.02;3.00;;;;;;;-146.27;82.44;42983.78;5070114;28;20421;-70
2024/02/02 04:19:08;;;;;;;14.57;2.95;;;;;;;-146.27;83.50;43003.69;5070188;28;20107;-70
2024/02/02 04:21:34;;;;;;;15.05;3.78;;;;;;;-146.27;82.45;42957.94;5069971;28;20032;-70
2024/02/02 04:23:59;;;;;;;23.77;3.10;;;;;;;-146.27;83.99;43001.69;5070115;28;20058;-71
2024/02/02 04:26:25;;;;;;;17.42;4.60;;;;;;;-146.27;82.98;42953.94;5065219;28;20057;-71
2024/02/02 04:28:50;;;;;;;23.55;3.80;;;;;;;-146.27;83.32;43015.59;5050963;28;20107;-71
2024/02/02 04:31:16;;;;;;;32.88;4.75;;;;;;;-146.27;83.17;42991.75;5069297;28;20045;-72
2024/02/02 04:33:41;;;;;;;21.58;3.53;;;;;;;-146.27;84.10;42981.78;5060252;28;20538;-71
2024/02/02 04:36:07;;;;;;;18.27;3.17;;;;;;;-146.27;84.07;42946.00;5050108;28;20033;-69
2024/02/02 04:38:32;;;;;;;21.60;3.47;;;;;;;-146.27;84.45;42973.84;5054213;28;20435;-72
2024/02/02 04:40:57;;;;;;;17.05;2.42;;;;;;;-146.27;83.63;42949.97;5066841;28;20060;-71
2024/02/02 04:43:23;;;;;;;25.45;3.53;;;;;;;-146.27;83.45;42973.84;5062953;28;20416;-71
2024/02/02 04:45:48;;;;;;;17.00;2.88;;;;;;;-146.27;83.99;42946.00;5068782;28;20056;-71
2024/02/02 04:48:14;;;;;;;15.95;2.63;;;;;;;-146.27;83.25;42942.00;5064696;28;20017;-72
2024/02/02 04:50:40;;;;;;;27.27;3.40;;;;;;;-146.27;83.57;42949.97;5048666;28;20047;-72
2024/02/02 04:53:06;;;;;;;19.08;3.30;;;;;;;-146.27;83.50;42967.88;5065828;28;20108;-73
2024/02/02 04:55:31;;;;;;;16.08;3.13;;;;;;;-146.27;83.15;42934.06;5068824;28;20063;-72
2024/02/02 04:57:57;;;;;;;19.15;3.60;;;;;;;-146.27;83.18;42969.84;5055931;28;20068;-72
2024/02/02 05:00:22;;;;;;;22.98;3.78;;;;;;;-146.27;83.70;42934.06;5049775;28;20504;-72
2024/02/02 05:02:48;;;;;;;21.38;3.20;;;;;;;-146.27;83.88;42993.72;5066074;28;20384;-71
2024/02/02 05:05:14;;;;;;;17.00;2.40;;;;;;;-146.27;84.26;42898.25;5064453;28;20048;-72
2024/02/02 05:07:39;;;;;;;18.33;2.50;;;;;;;-146.27;83.42;42912.19;5056449;28;20443;-71
2024/02/02 05:10:05;;;;;;;18.48;3.33;;;;;;;-146.27;83.20;42914.16;5067469;28;20034;-73
2024/02/02 05:12:32;;;;;;;22.70;3.25;;;;;;;-146.27;82.69;42904.22;5069565;28;20056;-72
2024/02/02 05:14:57;;;;;;;24.63;3.30;;;;;;;-146.27;83.44;42942.00;5067631;28;20492;-72
2024/02/02 05:17:23;;;;;;;29.05;4.05;;;;;;;-146.27;84.64;42878.38;5067698;28;20085;-72
2024/02/02 05:19:48;;;;;;;23.90;3.42;;;;;;;-146.27;84.34;42906.22;5067328;28;20054;-72
2024/02/02 05:22:13;;;;;;;24.33;2.80;;;;;;;-146.27;84.23;42934.06;5066625;28;20119;-73
2024/02/02 05:24:40;;;;;;;17.63;2.92;;;;;;;-146.27;85.05;42872.41;5072556;28;20032;-72
2024/02/02 05:27:05;;;;;;;25.95;3.60;;;;;;;-146.27;86.21;42864.44;5072203;28;20028;-72
2024/02/02 05:29:31;;;;;;;25.30;3.13;;;;;;;-146.27;86.16;42870.41;5072443;28;20473;-73
2024/02/02 05:31:56;;;;;;;15.73;2.80;;;;;;;-146.27;85.10;42812.72;5071754;28;20041;-72
2024/02/02 05:34:21;;;;;;;26.33;4.10;;;;;;;-146.27;85.78;42870.41;5071902;28;20031;-72
2024/02/02 05:36:47;;;;;;;27.52;3.13;;;;;;;-146.27;86.02;42874.38;5067030;28;20037;-72
2024/02/02 05:39:13;;;;;;;18.20;3.55;;;;;;;-146.27;85.94;42814.72;5068684;28;20115;-72
2024/02/02 05:41:38;;;;;;;25.27;3.03;;;;;;;-146.27;86.01;42816.72;5073332;28;20029;-72
2024/02/02 05:44:04;;;;;;;18.98;3.08;;;;;;;-146.27;86.11;42767.00;5071909;28;20028;-72
2024/02/02 05:46:29;;;;;;;23.90;2.95;;;;;;;-146.27;84.61;42753.06;5071571;28;20024;-71
2024/02/02 05:48:54;;;;;;;24.75;4.10;;;;;;;-146.27;85.59;42870.41;5072045;28;20047;-72
2024/02/02 05:51:20;;;;;;;29.33;4.22;;;;;;;-146.27;86.89;42786.88;5073024;28;20077;-71
2024/02/02 05:53:45;;;;;;;23.83;3.95;;;;;;;-146.27;86.56;42699.38;5069644;28;20496;-72
2024/02/02 05:56:11;;;;;;;26.35;2.97;;;;;;;-146.27;86.67;42759.03;5064060;28;20032;-73
2024/02/02 05:58:36;;;;;;;18.15;3.13;;;;;;;-146.27;85.14;42729.19;5071477;28;20293;-72
2024/02/02 06:01:02;;;;;;;18.25;3.13;;;;;;;-146.27;86.67;42697.38;5070071;28;20404;-72
2024/02/02 06:03:28;;;;;;;20.75;5.05;;;;;;;-146.27;84.91;42757.03;5070280;28;20021;-72
2024/02/02 06:05:55;;;;;;;32.00;3.28;;;;;;;-146.27;86.10;42731.19;5072824;28;20078;-72
2024/02/02 06:08:20;;;;;;;22.52;4.05;;;;;;;-146.27;84.69;42727.22;5066331;28;20373;-72
2024/02/02 06:10:46;;;;;;;17.42;4.07;;;;;;;-146.27;84.91;42806.75;5066182;28;20033;-72
2024/02/02 06:13:11;;;;;;;20.23;2.53;;;;;;;-146.27;86.05;42741.13;5071898;28;20436;-72
2024/02/02 06:15:36;;;;;;;18.45;3.17;;;;;;;-146.27;85.94;42711.31;5071872;28;20024;-72
2024/02/02 06:18:02;;;;;;;18.85;3.58;;;;;;;-146.27;85.07;42747.09;5065945;28;20218;-72
2024/02/02 06:20:27;;;;;;;26.85;3.83;;;;;;;-146.27;84.37;42858.47;5058477;28;20055;-72
2024/02/02 06:22:53;;;;;;;19.35;3.10;;;;;;;-146.27;85.43;42731.19;5054180;28;20020;-73
2024/02/02 06:25:18;;;;;;;17.38;2.95;;;;;;;-146.27;84.89;42774.94;5070979;28;20024;-72
2024/02/02 06:27:44;;;;;;;22.38;3.47;;;;;;;-146.27;83.96;42774.94;5070418;28;20046;-72
2024/02/02 06:30:11;;;;;;;20.23;2.83;;;;;;;-146.27;84.29;42788.88;5071518;28;20024;-72
2024/02/02 06:32:38;;;;;;;16.45;2.55;;;;;;;-146.27;84.87;42790.84;5063057;28;20072;-73
2024/02/02 06:35:04;;;;;;;21.88;3.20;;;;;;;-146.27;85.76;42818.69;5063878;28;20095;-73
2024/02/02 06:37:30;;;;;;;24.92;3.28;;;;;;;-146.27;85.97;42822.69;5071358;28;20024;-73
2024/02/02 06:39:56;;;;;;;20.10;4.00;;;;;;;-146.27;85.88;42830.63;5076581;28;20016;-73
2024/02/02 06:42:24;;;;;;;21.23;4.25;;;;;;;-146.27;84.94;42761.03;5063580;28;20108;-74
2024/02/02 06:44:54;;;;;;;22.92;2.75;;;;;;;-146.27;85.32;42830.63;5071458;28;20021;-72
2024/02/02 06:47:20;;;;;;;19.88;3.33;;;;;;;-146.27;85.59;42786.88;5071007;28;20024;-73
2024/02/02 06:49:46;;;;;;;23.88;4.10;;;;;;;-146.27;84.34;42772.97;5075606;28;20036;-71
2024/02/02 06:52:13;;;;;;;19.13;2.90;;;;;;;-146.27;85.06;42810.75;5067681;28;20143;-71
2024/02/02 06:54:39;;;;;;;22.02;3.58;;;;;;;-146.27;83.87;42830.63;5066890;28;20056;-72
2024/02/02 06:57:04;;;;;;;18.13;3.17;;;;;;;-146.27;84.73;42834.59;5059794;28;20098;-72
2024/02/02 06:59:30;;;;;;;22.45;3.33;;;;;;;-146.27;84.43;42854.50;5065023;28;20032;-70
2024/02/02 07:01:57;;;;;;;23.38;3.25;;;;;;;-146.27;84.73;42860.47;5060778;28;20063;-71
2024/02/02 07:04:23;;;;;;;15.27;2.75;;;;;;;-146.27;85.08;42836.59;5062464;28;20029;-72
2024/02/02 07:06:49;;;;;;;28.35;3.15;;;;;;;-146.27;84.45;42846.53;5070640;28;20028;-71
2024/02/02 07:09:21;;;;;;;21.52;3.53;;;;;;;-146.27;84.98;42842.56;5072127;28;20028;-72
2024/02/02 07:11:55;;;;;;;17.83;3.08;;;;;;;-146.27;84.77;42854.50;5069806;28;20027;-73
2024/02/02 07:14:44;;;;;;;31.40;3.45;;;;;;;-146.27;85.62;42850.53;5068869;28;20035;-72
2024/02/02 07:17:34;;;;;;;22.85;3.30;;;;;;;-146.27;85.87;42798.81;5070629;28;20020;-71
2024/02/02 07:20:00;;;;;;;24.25;3.35;;;;;;;-146.27;84.68;42858.47;5064958;28;20024;-72
2024/02/02 07:22:39;;;;;;;17.42;2.55;;;;;;;-146.27;84.67;42844.56;5066428;28;20021;-72
2024/02/02 07:25:12;;;;;;;17.27;3.05;;;;;;;-146.27;84.38;42830.63;5070240;28;20103;-72
2024/02/02 07:28:05;;;;;;;16.45;2.75;;;;;;;-146.27;84.93;42848.53;5067542;28;20028;-72
2024/02/02 07:30:31;;;;;;;24.45;4.18;;;;;;;-146.27;85.55;42860.47;5069621;28;20028;-73
2024/02/02 07:32:57;;;;;;;20.65;3.00;;;;;;;-146.27;86.18;42870.41;5070945;28;20142;-72
2024/02/02 07:35:32;;;;;;;37.78;3.92;;;;;;;-146.27;86.52;42854.50;5066845;28;20024;-73
2024/02/02 07:38:03;;;;;;;24.30;3.80;;;;;;;-146.27;86.21;42838.59;5069897;28;20031;-72
2024/02/02 07:40:58;;;;;;;18.65;3.83;;;;;;;-146.27;86.70;42894.28;5071784;28;20395;-72
2024/02/02 07:43:23;;;;;;;17.17;3.30;;;;;;;-146.27;85.88;42934.06;5070925;28;20028;-72
2024/02/02 07:45:49;;;;;;;33.53;3.53;;;;;;;-146.27;85.71;42987.75;5068269;28;20032;-72
2024/02/02 07:48:14;;;;;;;19.90;3.63;;;;;;;-146.27;86.23;42983.78;5070665;28;20028;-71
2024/02/02 07:50:40;;;;;;;36.03;4.15;;;;;;;-146.27;86.37;42951.97;5069502;28;20027;-72
2024/02/02 07:53:05;;;;;;;33.75;4.47;;;;;;;-146.27;86.20;42977.81;5069422;28;20111;-73
2024/02/02 07:55:30;;;;;;;29.83;3.90;;;;;;;-146.27;85.26;42985.78;5070475;28;20025;-73
2024/02/02 07:57:56;;;;;;;25.73;3.33;;;;;;;-146.27;85.34;43033.50;5068598;28;20035;-72
2024/02/02 08:00:21;;;;;;;16.23;2.67;;;;;;;-146.27;84.46;43089.19;5070792;28;20074;-72
2024/02/02 08:02:46;;;;;;;24.98;3.97;;;;;;;-146.27;84.95;43105.13;5069207;28;20062;-73
2024/02/02 08:05:12;;;;;;;23.73;3.38;;;;;;;-146.27;85.09;43170.75;5068603;28;20020;-72
2024/02/02 08:07:38;;;;;;;23.02;3.40;;;;;;;-146.27;85.78;43180.69;5069288;28;20021;-72
2024/02/02 08:10:04;;;;;;;29.42;4.32;;;;;;;-146.27;86.61;43121.03;5074942;28;20035;-72
2024/02/02 08:12:30;;;;;;;24.15;3.50;;;;;;;-146.27;85.80;43117.06;5075350;28;20023;-71
2024/02/02 08:14:56;;;;;;;18.20;3.22;;;;;;;-146.27;86.80;43132.97;5068455;28;20033;-73
2024/02/02 08:17:21;;;;;;;23.90;2.92;;;;;;;-146.27;87.68;43144.91;5069217;28;20124;-73
2024/02/02 08:19:46;;;;;;;20.20;3.08;;;;;;;-146.27;86.29;43093.19;5070065;28;20028;-72
2024/02/02 08:22:12;;;;;;;19.73;2.90;;;;;;;-146.27;86.40;43109.09;5069008;28;20024;-72
2024/02/02 08:24:37;;;;;;;23.88;2.80;;;;;;;-146.27;86.04;43087.22;5069215;28;20111;-73
2024/02/02 08:27:03;;;;;;;27.02;3.50;;;;;;;-146.27;86.69;43152.84;5067756;28;20374;-72
2024/02/02 08:29:29;;;;;;;23.20;2.72;;;;;;;-146.27;86.48;43132.97;5069896;28;20095;-72
2024/02/02 08:31:55;;;;;;;25.50;3.22;;;;;;;-146.27;86.56;43144.91;5068401;28;20090;-72
2024/02/02 08:34:21;;;;;;;13.23;2.65;;;;;;;-146.27;86.70;43111.09;5069746;28;20040;-73
2024/02/02 08:36:46;;;;;;;19.40;3.35;;;;;;;-146.27;87.00;43115.06;5068758;28;20083;-73
2024/02/02 08:39:13;;;;;;;26.33;3.63;;;;;;;-146.27;86.56;43150.88;5082218;28;20048;-73
2024/02/02 08:41:38;;;;;;;21.67;3.25;;;;;;;-146.27;86.10;43045.44;5082191;28;20028;-71
2024/02/02 08:44:24;;;;;;;21.48;3.22;;;;;;;-146.27;86.54;43105.13;5090397;28;20051;-71
2024/02/02 08:46:50;;;;;;;18.52;3.40;;;;;;;-146.27;86.59;43073.28;5086571;28;20032;-72
2024/02/02 08:49:36;;;;;;;24.38;3.30;;;;;;;-146.27;87.28;43077.28;5070158;28;20021;-72
2024/02/02 08:52:02;;;;;;;25.02;3.38;;;;;;;-146.27;87.65;43061.34;5066147;28;20016;-72
2024/02/02 08:54:34;;;;;;;25.80;3.90;;;;;;;-146.27;87.60;42999.69;5066957;28;20127;-72
2024/02/02 08:57:25;;;;;;;27.38;3.30;;;;;;;-146.27;87.82;43025.56;5069750;28;20326;-72
2024/02/02 08:59:54;;;;;;;26.88;3.58;;;;;;;-146.27;88.75;43025.56;5074172;28;20032;-73
2024/02/02 09:02:52;;;;;;;25.85;4.18;;;;;;;-146.27;87.73;42910.19;5069477;28;20025;-72
2024/02/02 09:05:27;;;;;;;43.65;5.18;;;;;;;-146.27;88.05;42961.91;5069354;28;20070;-73
2024/02/02 09:08:23;;;;;;;24.75;4.50;;;;;;;-146.27;88.63;42914.16;5066688;28;20545;-72
2024/02/02 09:10:48;;;;;;;32.55;4.47;;;;;;;-146.27;87.40;42902.22;5066849;28;20039;-72
2024/02/02 09:13:20;;;;;;;33.72;3.88;;;;;;;-146.27;88.47;42854.50;5069154;28;20374;-75
2024/02/02 09:15:46;;;;;;;27.33;3.63;;;;;;;-146.27;87.77;42852.50;5069286;28;20033;-72
2024/02/02 09:18:36;;;;;;;28.83;3.67;;;;;;;-146.27;88.51;42898.25;5069332;28;20036;-72
2024/02/02 09:21:03;;;;;;;29.90;4.43;;;;;;;-146.27;88.46;42866.44;5069305;28;20473;-72
2024/02/02 09:23:30;;;;;;;28.45;4.60;;;;;;;-146.27;88.83;42914.16;5069239;28;20025;-72
2024/02/02 09:25:55;;;;;;;28.73;3.08;;;;;;;-146.27;87.86;42842.56;5068508;28;20027;-72
2024/02/02 09:28:36;;;;;;;18.33;3.47;;;;;;;-146.27;87.05;42806.75;5064030;28;20036;-72
2024/02/02 09:31:04;;;;;;;33.70;4.20;;;;;;;-146.27;88.46;42886.31;5066652;28;20131;-73
2024/02/02 09:33:30;;;;;;;23.27;3.22;;;;;;;-146.27;87.07;42870.41;5069586;28;20024;-73
2024/02/02 09:35:56;;;;;;;27.35;4.30;;;;;;;-146.27;87.79;42864.44;5069155;28;20043;-72
2024/02/02 09:38:22;;;;;;;24.27;3.83;;;;;;;-146.27;86.78;42872.41;5069451;28;20017;-72
2024/02/02 09:41:03;;;;;;;24.88;4.00;;;;;;;-146.27;87.36;42864.44;5069435;28;20111;-72
2024/02/02 09:43:39;;;;;;;28.48;4.70;;;;;;;-146.27;87.31;42854.50;5068675;28;20031;-72
2024/02/02 09:46:28;;;;;;;25.45;4.13;;;;;;;-146.27;86.83;42888.31;5068248;28;20033;-72
2024/02/02 09:49:08;;;;;;;23.42;4.35;;;;;;;-146.27;85.64;42782.91;5068384;28;20461;-71
2024/02/02 09:51:46;;;;;;;25.92;3.85;;;;;;;-146.27;85.88;42814.72;5068911;28;20017;-71
2024/02/02 09:55:01;;;;;;;35.65;5.00;;;;;;;-146.27;85.51;42832.63;5084775;28;20035;-71
2024/02/02 09:57:49;;;;;;;18.63;3.13;;;;;;;-146.27;85.79;42802.78;5066015;28;20044;-73
2024/02/02 10:00:25;;;;;;;22.95;3.55;;;;;;;-146.27;86.60;42886.31;5069412;28;20055;-73
2024/02/02 10:03:18;;;;;;;20.13;3.17;;;;;;;-146.27;86.10;42860.47;5069286;28;20032;-71
2024/02/02 10:06:13;;;;;;;30.60;3.72;;;;;;;-146.27;84.64;42749.09;5054961;28;20032;-71
2024/02/02 10:08:57;;;;;;;25.42;4.22;;;;;;;-146.27;84.71;42834.59;5067880;28;20560;-72
2024/02/02 10:11:52;;;;;;;26.90;4.45;;;;;;;-146.27;85.98;42842.56;5072648;28;20059;-75
2024/02/02 10:14:39;;;;;;;26.83;3.63;;;;;;;-146.27;85.13;42822.69;5071840;28;20048;-73
2024/02/02 10:17:43;;;;;;;21.60;3.80;;;;;;;-146.27;86.15;42816.72;5072572;28;20385;-71
2024/02/02 10:20:34;;;;;;;24.50;4.43;;;;;;;-146.27;85.31;42743.13;5065195;28;20111;-71
2024/02/02 10:23:24;;;;;;;20.70;3.90;;;;;;;-146.27;83.33;42717.25;5072072;28;20036;-72
2024/02/02 10:26:23;;;;;;;30.23;4.18;;;;;;;-146.27;82.90;42705.34;5072221;28;20060;-72
2024/02/02 10:28:54;;;;;;;25.25;4.55;;;;;;;-146.27;82.91;42763.00;5073151;28;20251;-71
2024/02/02 10:31:20;;;;;;;22.35;3.63;;;;;;;-146.27;83.63;42743.13;5062026;28;20045;-71
2024/02/02 10:33:57;;;;;;;34.38;4.10;;;;;;;-146.27;82.50;42828.66;5072143;28;20344;-71
2024/02/02 10:36:54;;;;;;;19.95;3.42;;;;;;;-146.27;82.38;42772.97;5071271;28;20036;-71
2024/02/02 10:39:36;;;;;;;18.48;4.05;;;;;;;-146.27;82.78;42731.19;5070290;28;20024;-71
2024/02/02 10:42:16;;;;;;;27.98;4.00;;;;;;;-146.27;81.83;42719.25;5071862;28;20059;-71
2024/02/02 10:45:02;;;;;;;28.13;4.18;;;;;;;-146.27;82.03;42731.19;5072304;28;20029;-71
2024/02/02 10:47:42;;;;;;;25.35;4.68;;;;;;;-146.27;84.26;42866.44;5075553;28;20042;-71
2024/02/02 10:50:47;;;;;;;31.58;5.05;;;;;;;-146.27;83.64;42802.78;5092411;28;20490;-71
2024/02/02 10:53:31;;;;;;;;;;;;;;;-146.27;84.98;42832.63;5074908;28;20071;-71
2024/02/02 10:55:56;;;;;;;19.35;3.03;;;;;;;-146.27;84.68;42767.00;5071795;28;20445;-71
2024/02/02 10:58:42;;;;;;;22.27;3.75;;;;;;;-146.27;84.51;42796.81;5071902;28;20140;-72
2024/02/02 11:01:24;;;;;;;17.88;4.72;;;;;;;-146.27;84.99;42755.06;5071841;28;20024;-72
2024/02/02 11:04:19;;;;;;;22.27;4.10;;;;;;;-146.27;85.12;42802.78;5071990;28;20020;-71
2024/02/02 11:06:54;;;;;;;26.23;3.95;;;;;;;-146.27;84.59;42731.19;5059227;28;20684;-71
2024/02/02 11:09:31;;;;;;;36.05;4.85;;;;;;;-146.27;85.12;42774.94;5070443;28;20056;-71
2024/02/02 11:12:10;;;;;;;29.77;7.25;;;;;;;-146.27;85.51;42757.03;5071273;28;20103;-73
2024/02/02 11:14:39;;;;;;;21.65;4.03;;;;;;;-146.27;84.67;42711.31;5070199;28;20487;-71
2024/02/02 11:17:22;;;;;;;20.55;5.20;;;;;;;-146.27;85.29;42747.09;5070969;28;20357;-71
2024/02/02 11:20:17;;;;;;;17.90;4.65;;;;;;;-146.27;84.89;42691.41;5071643;28;20020;-71